Time;durP1;ratioP1;P1;durP2;ratioP2;P2;SDS_P1;SDS_P2;PMS_P1;PMS_P2;Temp;Humidity;BMP_temperature;BMP_pressure;BME280_temperature;BME280_humidity;BME280_pressure;Samples;Min_cycle;Max_cycle;Signal;HPM_P1;HPM_P2
2024/03/28 00:01:04;;;;;;;0.20;0.20;;;;;;;-139.19;100.00;56970.53;5037351;28;20026;-66
2024/03/28 00:03:30;;;;;;;0.10;0.10;;;;;;;-139.19;100.00;56970.53;5055254;28;20025;-65
2024/03/28 00:05:56;;;;;;;0.57;0.57;;;;;;;-139.19;100.00;56970.53;5054173;28;20388;-66
2024/03/28 00:08:23;;;;;;;0.10;0.10;;;;;;;-139.19;100.00;56970.53;5039195;28;20127;-66
2024/03/28 00:10:49;;;;;;;0.15;0.15;;;;;;;-139.19;100.00;56970.53;5055207;28;20052;-65
2024/03/28 00:13:16;;;;;;;0.88;0.85;;;;;;;-139.19;100.00;56970.53;5055438;28;20067;-65
2024/03/28 00:15:41;;;;;;;0.10;0.10;;;;;;;-139.19;100.00;56970.53;5055745;28;20013;-66
2024/03/28 00:18:07;;;;;;;0.43;0.43;;;;;;;-139.19;100.00;56970.53;5055179;28;20020;-66
2024/03/28 00:20:32;;;;;;;0.10;0.10;;;;;;;-139.19;100.00;56970.53;5055137;28;20545;-66
2024/03/28 00:22:57;;;;;;;0.45;0.45;;;;;;;-139.19;100.00;56970.53;5055266;28;20031;-66
2024/03/28 00:25:23;;;;;;;0.10;0.10;;;;;;;-139.19;100.00;56970.53;5055118;28;20064;-66
2024/03/28 00:27:48;;;;;;;0.28;0.25;;;;;;;-139.19;100.00;56970.53;5055186;28;20029;-67
2024/03/28 00:30:14;;;;;;;0.13;0.13;;;;;;;-139.19;100.00;56970.53;5055129;28;20064;-66
2024/03/28 00:32:39;;;;;;;0.28;0.28;;;;;;;-139.19;100.00;56970.53;5051854;28;20474;-67
2024/03/28 00:35:05;;;;;;;0.17;0.17;;;;;;;-139.19;100.00;56970.53;5035005;28;20029;-67
2024/03/28 00:37:31;;;;;;;0.10;0.10;;;;;;;-139.19;100.00;56970.53;5034210;28;20029;-67
2024/03/28 00:39:56;;;;;;;0.00;0.00;;;;;;;-139.19;100.00;56970.53;5052824;28;20488;-66
2024/03/28 00:42:21;;;;;;;1.00;0.82;;;;;;;-139.19;100.00;56970.53;5049625;28;20032;-66
2024/03/28 00:44:47;;;;;;;0.30;0.30;;;;;;;-139.19;100.00;56970.53;5043054;28;20021;-67
2024/03/28 00:47:12;;;;;;;0.10;0.10;;;;;;;-139.19;100.00;56970.53;5054161;28;20420;-67
2024/03/28 00:49:37;;;;;;;0.10;0.10;;;;;;;-139.19;100.00;56970.53;5054116;28;20021;-66
2024/03/28 00:52:03;;;;;;;0.20;0.20;;;;;;;-139.19;100.00;56970.53;5044464;28;20028;-67
2024/03/28 00:54:28;;;;;;;1.17;1.05;;;;;;;-139.19;100.00;56970.53;5035169;28;20049;-67
2024/03/28 00:56:54;;;;;;;0.10;0.10;;;;;;;-139.19;100.00;56970.53;5041142;28;20388;-66
2024/03/28 00:59:19;;;;;;;0.10;0.10;;;;;;;-139.19;100.00;56970.53;5045215;28;20425;-66
2024/03/28 01:01:44;;;;;;;0.20;0.20;;;;;;;-139.19;100.00;56970.53;5045659;28;20390;-66
2024/03/28 01:04:10;;;;;;;0.47;0.47;;;;;;;-139.19;100.00;56970.53;5053839;28;20444;-66
2024/03/28 01:06:35;;;;;;;0.30;0.30;;;;;;;-139.19;100.00;56970.53;5043608;28;20052;-67
2024/03/28 01:09:00;;;;;;;0.28;0.28;;;;;;;-139.19;100.00;56970.53;5034311;28;20029;-66
2024/03/28 01:11:26;;;;;;;0.10;0.10;;;;;;;-139.19;100.00;56970.53;5034402;28;20117;-67
2024/03/28 01:13:51;;;;;;;0.10;0.10;;;;;;;-139.19;100.00;56970.53;5053685;28;20025;-67
2024/03/28 01:16:16;;;;;;;0.52;0.52;;;;;;;-139.19;100.00;56970.53;5045634;28;20032;-66
2024/03/28 01:18:42;;;;;;;0.28;0.28;;;;;;;-139.19;100.00;56970.53;5053234;28;20032;-67
2024/03/28 01:21:07;;;;;;;0.10;0.10;;;;;;;-139.19;100.00;56970.53;5051409;28;20025;-67
2024/03/28 01:23:32;;;;;;;0.28;0.28;;;;;;;-139.19;100.00;56970.53;5034085;28;20389;-67
2024/03/28 01:26:02;;;;;;;0.20;0.20;;;;;;;-139.19;100.00;56970.53;5034100;28;20021;-67
2024/03/28 01:28:27;;;;;;;0.10;0.10;;;;;;;-139.19;100.00;56970.53;5026602;28;20354;-66
2024/03/28 01:31:01;;;;;;;0.10;0.10;;;;;;;-139.19;100.00;56970.53;5033977;28;20029;-66
2024/03/28 01:33:27;;;;;;;0.20;0.20;;;;;;;-139.19;100.00;56970.53;5044065;28;20064;-66
2024/03/28 01:35:52;;;;;;;0.10;0.10;;;;;;;-139.19;100.00;56970.53;5053216;28;20028;-67
2024/03/28 01:38:18;;;;;;;0.25;0.25;;;;;;;-139.19;100.00;56970.53;5052860;28;20036;-66
2024/03/28 01:40:43;;;;;;;0.10;0.10;;;;;;;-139.19;100.00;56970.53;5051639;28;20072;-66
2024/03/28 01:43:08;;;;;;;0.40;0.40;;;;;;;-139.19;100.00;56970.53;5038205;28;20076;-66
2024/03/28 01:45:34;;;;;;;0.10;0.10;;;;;;;-139.19;100.00;56970.53;5033575;28;20057;-67
2024/03/28 01:48:01;;;;;;;0.10;0.10;;;;;;;-139.19;100.00;56970.53;5033930;28;20433;-66
2024/03/28 01:50:28;;;;;;;0.10;0.10;;;;;;;-139.19;100.00;56970.53;5049615;28;20031;-67
2024/03/28 01:52:54;;;;;;;0.30;0.30;;;;;;;-139.19;100.00;56970.53;5053505;28;20033;-67
2024/03/28 01:55:20;;;;;;;0.10;0.10;;;;;;;-139.19;100.00;56970.53;5073204;28;20025;-66
2024/03/28 01:57:47;;;;;;;0.35;0.35;;;;;;;-139.19;100.00;56970.53;5064411;28;20052;-67
2024/03/28 02:00:15;;;;;;;0.10;0.10;;;;;;;-139.19;100.00;56970.53;5071740;28;20028;-67
2024/03/28 02:02:40;;;;;;;0.30;0.30;;;;;;;-139.19;100.00;56970.53;5072805;28;20103;-67
2024/03/28 02:05:06;;;;;;;0.17;0.17;;;;;;;-139.19;100.00;56970.53;5072273;28;20433;-67
2024/03/28 02:07:32;;;;;;;0.55;0.55;;;;;;;-139.19;100.00;56970.53;5072786;28;20028;-67
2024/03/28 02:09:57;;;;;;;0.68;0.68;;;;;;;-139.19;100.00;56970.53;5072728;28;20106;-66
2024/03/28 02:12:23;;;;;;;0.32;0.32;;;;;;;-139.19;100.00;56970.53;5072409;28;20064;-66
2024/03/28 02:14:49;;;;;;;0.13;0.13;;;;;;;-139.19;100.00;56970.53;5064718;28;20575;-66
2024/03/28 02:17:14;;;;;;;0.10;0.10;;;;;;;-139.19;100.00;56970.53;5065778;28;20036;-67
2024/03/28 02:19:39;;;;;;;0.20;0.20;;;;;;;-139.19;100.00;56970.53;5071041;28;20366;-66
2024/03/28 02:22:05;;;;;;;0.10;0.10;;;;;;;-139.19;100.00;56970.53;5053162;28;20033;-66
2024/03/28 02:24:31;;;;;;;0.10;0.10;;;;;;;-139.19;100.00;56970.53;5053068;28;20037;-67
2024/03/28 02:26:57;;;;;;;0.20;0.20;;;;;;;-139.19;100.00;56970.53;5069223;28;20040;-66
2024/03/28 02:29:23;;;;;;;0.82;0.82;;;;;;;-139.19;100.00;56970.53;5073185;28;20055;-66
2024/03/28 02:31:48;;;;;;;0.22;0.22;;;;;;;-139.19;100.00;56970.53;5066669;28;20481;-67
2024/03/28 02:34:17;;;;;;;0.52;0.52;;;;;;;-139.19;100.00;56970.53;5063307;28;20079;-66
2024/03/28 02:36:43;;;;;;;0.10;0.10;;;;;;;-139.19;100.00;56970.53;5072601;28;20032;-67
2024/03/28 02:39:10;;;;;;;0.20;0.20;;;;;;;-139.19;100.00;56970.53;5064548;28;20403;-67
2024/03/28 02:41:37;;;;;;;1.55;1.45;;;;;;;-139.19;100.00;56970.53;5065573;28;20087;-67
2024/03/28 02:44:03;;;;;;;0.20;0.20;;;;;;;-139.19;100.00;56970.53;5072416;28;20032;-66
2024/03/28 02:46:28;;;;;;;0.15;0.15;;;;;;;-139.19;100.00;56970.53;5072404;28;20358;-66
2024/03/28 02:48:53;;;;;;;0.10;0.10;;;;;;;-139.19;100.00;56970.53;5061969;28;20075;-66
2024/03/28 02:51:19;;;;;;;0.10;0.10;;;;;;;-139.19;100.00;56970.53;5052884;28;20036;-67
2024/03/28 02:53:44;;;;;;;0.25;0.25;;;;;;;-139.19;100.00;56970.53;5046372;28;20083;-66
2024/03/28 02:56:09;;;;;;;0.20;0.20;;;;;;;-139.19;100.00;56970.53;5041124;28;20037;-66
2024/03/28 02:58:35;;;;;;;0.10;0.10;;;;;;;-139.19;100.00;56970.53;5038391;28;20035;-66
2024/03/28 03:01:03;;;;;;;0.10;0.10;;;;;;;-139.19;100.00;56970.53;5052462;28;20051;-67
2024/03/28 03:03:29;;;;;;;0.10;0.10;;;;;;;-139.19;100.00;56970.53;5056440;28;20033;-66
2024/03/28 03:05:54;;;;;;;0.10;0.10;;;;;;;-139.19;100.00;56970.53;5055934;28;20432;-67
2024/03/28 03:08:19;;;;;;;0.08;0.08;;;;;;;-139.19;100.00;56970.53;5038152;28;20068;-66
2024/03/28 03:10:45;;;;;;;0.00;0.00;;;;;;;-139.19;100.00;56970.53;5036582;28;20128;-66
2024/03/28 03:13:10;;;;;;;0.10;0.10;;;;;;;-139.19;100.00;56970.53;5045095;28;20488;-67
2024/03/28 03:15:36;;;;;;;0.10;0.10;;;;;;;-139.19;100.00;56970.53;5038281;28;20025;-67
2024/03/28 03:18:02;;;;;;;0.10;0.10;;;;;;;-139.19;100.00;56970.53;5052408;28;20117;-67
2024/03/28 03:20:27;;;;;;;0.10;0.10;;;;;;;-139.19;100.00;56970.53;5036380;28;20025;-67
2024/03/28 03:23:04;;;;;;;0.40;0.40;;;;;;;-139.19;100.00;56970.53;5045396;28;20029;-66
2024/03/28 03:25:41;;;;;;;0.10;0.10;;;;;;;-139.19;100.00;56970.53;5050151;28;20029;-67
2024/03/28 03:36:18;;;;;;;0.20;0.20;;;;;;;-139.19;100.00;56970.53;5053540;28;20047;-67
2024/03/28 03:38:44;;;;;;;0.60;0.60;;;;;;;-139.19;100.00;56970.53;5055463;28;20021;-67
2024/03/28 03:41:09;;;;;;;0.10;0.10;;;;;;;-139.19;100.00;56970.53;5055439;28;20383;-67
2024/03/28 03:43:34;;;;;;;0.10;0.10;;;;;;;-139.19;100.00;56970.53;5038791;28;20025;-66
2024/03/28 03:45:59;;;;;;;0.05;0.05;;;;;;;-139.19;100.00;56970.53;5050319;28;20040;-67
2024/03/28 03:48:25;;;;;;;0.17;0.17;;;;;;;-139.19;100.00;56970.53;5049989;28;20028;-67
2024/03/28 03:50:53;;;;;;;0.15;0.15;;;;;;;-139.19;100.00;56970.53;5054120;28;20110;-66
2024/03/28 03:53:26;;;;;;;0.20;0.20;;;;;;;-139.19;100.00;56970.53;5044820;28;20382;-66
2024/03/28 03:55:58;;;;;;;0.17;0.17;;;;;;;-139.19;100.00;56970.53;5035759;28;20048;-67
2024/03/28 03:58:24;;;;;;;0.10;0.10;;;;;;;-139.19;100.00;56970.53;5036005;28;20057;-66
2024/03/28 04:00:49;;;;;;;0.10;0.10;;;;;;;-139.19;100.00;56970.53;5050682;28;20048;-67
2024/03/28 04:03:14;;;;;;;0.10;0.10;;;;;;;-139.19;100.00;56970.53;5053490;28;20091;-67
2024/03/28 04:05:40;;;;;;;0.10;0.10;;;;;;;-139.19;100.00;56970.53;5035585;28;20112;-67
2024/03/28 04:08:06;;;;;;;0.43;0.43;;;;;;;-139.19;100.00;56970.53;5050666;28;20079;-67
2024/03/28 04:10:32;;;;;;;0.20;0.20;;;;;;;-139.19;100.00;56970.53;5043761;28;20374;-67
2024/03/28 04:12:57;;;;;;;0.10;0.10;;;;;;;-139.19;100.00;56970.53;5035384;28;20029;-66
2024/03/28 04:15:23;;;;;;;1.25;0.40;;;;;;;-139.19;100.00;56970.53;5035894;28;20039;-67
2024/03/28 04:17:48;;;;;;;0.00;0.00;;;;;;;-139.19;100.00;56970.53;5046805;28;20029;-67
2024/03/28 04:20:14;;;;;;;0.10;0.10;;;;;;;-139.19;100.00;56970.53;5054636;28;20100;-67
2024/03/28 04:22:39;;;;;;;0.10;0.10;;;;;;;-139.19;100.00;56970.53;5055212;28;20029;-66
2024/03/28 04:25:05;;;;;;;0.10;0.10;;;;;;;-139.19;100.00;56970.53;5055156;28;20033;-67
2024/03/28 04:27:30;;;;;;;0.10;0.10;;;;;;;-139.19;100.00;56970.53;5047015;28;20087;-67
2024/03/28 04:29:55;;;;;;;0.10;0.10;;;;;;;-139.19;100.00;56970.53;5035049;28;20133;-67
2024/03/28 04:32:21;;;;;;;0.20;0.20;;;;;;;-139.19;100.00;56970.53;5047353;28;20056;-67
2024/03/28 04:34:47;;;;;;;0.10;0.10;;;;;;;-139.19;100.00;56970.53;5043457;28;20034;-67
2024/03/28 04:37:13;;;;;;;0.20;0.20;;;;;;;-139.19;100.00;56970.53;5033982;28;20026;-67
2024/03/28 04:39:38;;;;;;;0.10;0.10;;;;;;;-139.19;100.00;56970.53;5018069;28;20026;-67
2024/03/28 04:42:04;;;;;;;0.10;0.10;;;;;;;-139.19;100.00;56970.53;5014123;28;20398;-67
2024/03/28 04:44:29;;;;;;;0.13;0.13;;;;;;;-139.19;100.00;56970.53;5013920;28;20072;-67
2024/03/28 04:46:57;;;;;;;0.00;0.00;;;;;;;-139.19;100.00;56970.53;5030602;28;20025;-67
2024/03/28 04:49:22;;;;;;;0.45;0.45;;;;;;;-139.19;100.00;56970.53;5045139;28;20452;-67
2024/03/28 04:51:49;;;;;;;0.00;0.00;;;;;;;-139.19;100.00;56970.53;5045459;28;20056;-67
2024/03/28 04:54:14;;;;;;;0.10;0.10;;;;;;;-139.19;100.00;56970.53;5043799;28;20049;-66
2024/03/28 04:56:41;;;;;;;0.10;0.10;;;;;;;-139.19;100.00;56970.53;5053504;28;20024;-65
2024/03/28 04:59:07;;;;;;;0.00;0.00;;;;;;;-139.19;100.00;56970.53;5059737;28;20047;-65
2024/03/28 05:01:32;;;;;;;0.10;0.10;;;;;;;-139.19;100.00;56970.53;5062617;28;20029;-66
2024/03/28 05:03:58;;;;;;;0.10;0.10;;;;;;;-139.19;100.00;56970.53;5053378;28;20492;-66
2024/03/28 05:06:23;;;;;;;0.45;0.45;;;;;;;-139.19;100.00;56970.53;5053116;28;20033;-66
2024/03/28 05:08:49;;;;;;;0.20;0.20;;;;;;;-139.19;100.00;56970.53;5053504;28;20156;-66
2024/03/28 05:11:14;;;;;;;0.10;0.10;;;;;;;-139.19;100.00;56970.53;5061423;28;20031;-66
2024/03/28 05:13:40;;;;;;;2.08;1.10;;;;;;;-139.19;100.00;56970.53;5065890;28;20480;-66
2024/03/28 05:16:07;;;;;;;0.00;0.00;;;;;;;-139.19;100.00;56970.53;5072546;28;20017;-65
2024/03/28 05:18:33;;;;;;;0.10;0.10;;;;;;;-139.19;100.00;56970.53;5063153;28;20017;-66
2024/03/28 05:20:58;;;;;;;0.10;0.10;;;;;;;-139.19;100.00;56970.53;5060876;28;20434;-65
2024/03/28 05:23:23;;;;;;;0.00;0.00;;;;;;;-139.19;100.00;56970.53;5058775;28;20067;-65
2024/03/28 05:25:49;;;;;;;0.10;0.10;;;;;;;-139.19;100.00;56970.53;5070576;28;20027;-65
2024/03/28 05:28:14;;;;;;;0.20;0.20;;;;;;;-139.19;100.00;56970.53;5053174;28;20047;-65
2024/03/28 05:30:40;;;;;;;0.10;0.10;;;;;;;-139.19;100.00;56970.53;5053098;28;20040;-65
2024/03/28 05:33:05;;;;;;;0.25;0.22;;;;;;;-139.19;100.00;56970.53;5052790;28;20495;-65
2024/03/28 05:35:31;;;;;;;0.10;0.10;;;;;;;-139.19;100.00;56970.53;5052786;28;20477;-65
2024/03/28 05:37:57;;;;;;;0.17;0.17;;;;;;;-139.19;100.00;56970.53;5060090;28;20460;-66
2024/03/28 05:40:22;;;;;;;0.00;0.00;;;;;;;-139.19;100.00;56970.53;5061016;28;20047;-65
2024/03/28 05:42:47;;;;;;;0.10;0.10;;;;;;;-139.19;100.00;56970.53;5052865;28;20464;-65
2024/03/28 05:45:13;;;;;;;0.10;0.10;;;;;;;-139.19;100.00;56970.53;5052536;28;20032;-65
2024/03/28 05:47:38;;;;;;;0.00;0.00;;;;;;;-139.19;100.00;56970.53;5052608;28;20029;-65
2024/03/28 05:50:04;;;;;;;0.80;0.28;;;;;;;-139.19;100.00;56970.53;5059585;28;20385;-65
2024/03/28 05:52:30;;;;;;;0.43;0.32;;;;;;;-139.19;100.00;56970.53;5063078;28;20032;-65
2024/03/28 05:54:55;;;;;;;0.10;0.10;;;;;;;-139.19;100.00;56970.53;5044682;28;20052;-65
2024/03/28 05:57:21;;;;;;;0.00;0.00;;;;;;;-139.19;100.00;56970.53;5032512;28;20029;-65
2024/03/28 05:59:46;;;;;;;0.10;0.10;;;;;;;-139.19;100.00;56970.53;5032434;28;20424;-65
2024/03/28 06:02:11;;;;;;;4.38;0.75;;;;;;;-139.19;100.00;56970.53;5032671;28;20029;-65
2024/03/28 06:04:36;;;;;;;0.00;0.00;;;;;;;-139.19;100.00;56970.53;5031927;28;20037;-65
2024/03/28 06:07:02;;;;;;;0.20;0.10;;;;;;;-139.19;100.00;56970.53;5043779;28;20029;-65
2024/03/28 06:09:27;;;;;;;0.00;0.00;;;;;;;-139.19;100.00;56970.53;5047095;28;20049;-65
2024/03/28 06:11:53;;;;;;;0.10;0.10;;;;;;;-139.19;100.00;56970.53;5032323;28;20395;-65
2024/03/28 06:14:18;;;;;;;0.00;0.00;;;;;;;-139.19;100.00;56970.53;5032462;28;20460;-65
2024/03/28 06:16:43;;;;;;;0.00;0.00;;;;;;;-139.19;100.00;56970.53;5031728;28;20100;-65
2024/03/28 06:19:09;;;;;;;0.10;0.10;;;;;;;-139.19;100.00;56970.53;5033649;28;20033;-65
2024/03/28 06:21:34;;;;;;;0.10;0.10;;;;;;;-139.19;100.00;56970.53;5052573;28;20440;-65
2024/03/28 06:24:00;;;;;;;3.30;0.52;;;;;;;-139.19;100.00;56970.53;5053120;28;20028;-65
2024/03/28 06:26:25;;;;;;;0.25;0.25;;;;;;;-139.19;100.00;56970.53;5053278;28;20021;-65
2024/03/28 06:28:52;;;;;;;0.20;0.20;;;;;;;-139.19;100.00;56970.53;5053072;28;20076;-65
2024/03/28 06:31:18;;;;;;;0.17;0.17;;;;;;;-139.19;100.00;56970.53;5053330;28;20087;-65
2024/03/28 06:33:45;;;;;;;0.03;0.03;;;;;;;-139.19;100.00;56970.53;5046732;28;20029;-65
2024/03/28 06:36:10;;;;;;;0.10;0.10;;;;;;;-139.19;100.00;56970.53;5034300;28;20021;-65
2024/03/28 06:38:35;;;;;;;0.00;0.00;;;;;;;-139.19;100.00;56970.53;5037570;28;20370;-65
2024/03/28 06:41:02;;;;;;;0.10;0.10;;;;;;;-139.19;100.00;56970.53;5037259;28;20030;-65
2024/03/28 06:43:27;;;;;;;0.10;0.10;;;;;;;-139.19;100.00;56970.53;5037118;28;20025;-65
2024/03/28 06:45:53;;;;;;;0.00;0.00;;;;;;;-139.19;100.00;56970.53;5037308;28;20040;-65
2024/03/28 06:48:18;;;;;;;0.10;0.10;;;;;;;-139.19;100.00;56970.53;5045797;28;20029;-65
2024/03/28 06:50:44;;;;;;;0.10;0.10;;;;;;;-139.19;100.00;56970.53;5056718;28;20370;-65
2024/03/28 06:53:09;;;;;;;0.00;0.00;;;;;;;-139.19;100.00;56970.53;5039663;28;20021;-73
2024/03/28 06:55:37;;;;;;;0.10;0.10;;;;;;;-139.19;100.00;56970.53;5074400;28;20056;-71
2024/03/28 06:58:03;;;;;;;2.72;0.30;;;;;;;-139.19;100.00;56970.53;5076929;28;20056;-71
2024/03/28 07:00:28;;;;;;;0.20;0.20;;;;;;;-139.19;100.00;56970.53;5076899;28;20048;-71
2024/03/28 07:02:55;;;;;;;0.10;0.10;;;;;;;-139.19;100.00;56970.53;5076884;28;20024;-71
2024/03/28 07:05:20;;;;;;;0.10;0.10;;;;;;;-139.19;100.00;56970.53;5076566;28;20028;-71
2024/03/28 07:07:46;;;;;;;0.00;0.00;;;;;;;-139.19;100.00;56970.53;5076873;28;20028;-62
2024/03/28 07:10:11;;;;;;;0.05;0.05;;;;;;;-139.19;100.00;56970.53;5067680;28;20021;-62
2024/03/28 07:12:37;;;;;;;0.10;0.10;;;;;;;-139.19;100.00;56970.53;5056149;28;20036;-62
2024/03/28 07:15:09;;;;;;;0.20;0.20;;;;;;;-139.19;100.00;56970.53;5054640;28;20500;-62
2024/03/28 07:17:36;;;;;;;0.10;0.10;;;;;;;-139.19;100.00;56970.53;5054684;28;20098;-62
2024/03/28 07:20:02;;;;;;;0.25;0.25;;;;;;;-139.19;100.00;56970.53;5053457;28;20417;-62
2024/03/28 07:22:29;;;;;;;0.15;0.15;;;;;;;-139.19;100.00;56970.53;5054031;28;20074;-62
2024/03/28 07:24:54;;;;;;;0.00;0.00;;;;;;;-139.19;100.00;56970.53;5055416;28;20025;-62
2024/03/28 07:27:19;;;;;;;0.17;0.17;;;;;;;-139.19;100.00;56970.53;5056127;28;20032;-62
2024/03/28 07:29:45;;;;;;;0.05;0.05;;;;;;;-139.19;100.00;56970.53;5056366;28;20025;-62
2024/03/28 07:32:10;;;;;;;0.32;0.32;;;;;;;-139.19;100.00;56970.53;5055627;28;20354;-62
2024/03/28 07:34:35;;;;;;;0.00;0.00;;;;;;;-139.19;100.00;56970.53;5056077;28;20380;-62
2024/03/28 07:37:00;;;;;;;0.35;0.35;;;;;;;-139.19;100.00;56970.53;5056259;28;20021;-62
2024/03/28 07:39:26;;;;;;;0.00;0.00;;;;;;;-139.19;100.00;56970.53;5056216;28;20056;-62
2024/03/28 07:41:51;;;;;;;0.00;0.00;;;;;;;-139.19;100.00;56970.53;5056391;28;20025;-62
2024/03/28 07:44:16;;;;;;;0.10;0.10;;;;;;;-139.19;100.00;56970.53;5056043;28;20547;-62
2024/03/28 07:46:42;;;;;;;0.00;0.00;;;;;;;-139.19;100.00;56970.53;5055492;28;20028;-62
2024/03/28 07:49:07;;;;;;;0.20;0.20;;;;;;;-139.19;100.00;56970.53;5055969;28;20025;-62
2024/03/28 07:51:32;;;;;;;0.00;0.00;;;;;;;-139.19;100.00;56970.53;5055989;28;20036;-62
2024/03/28 07:53:58;;;;;;;0.00;0.00;;;;;;;-139.19;100.00;56970.53;5052298;28;20482;-62
2024/03/28 07:56:23;;;;;;;0.00;0.00;;;;;;;-139.19;100.00;56970.53;5038129;28;20112;-65
2024/03/28 07:58:49;;;;;;;0.10;0.10;;;;;;;-139.19;100.00;56970.53;5036517;28;20033;-62
2024/03/28 08:01:14;;;;;;;0.00;0.00;;;;;;;-139.19;100.00;56970.53;5038990;28;20048;-63
2024/03/28 08:03:40;;;;;;;0.00;0.00;;;;;;;-139.19;100.00;56970.53;5039936;28;20091;-62
2024/03/28 08:06:06;;;;;;;0.00;0.00;;;;;;;-139.19;100.00;56970.53;5026835;28;20032;-63
2024/03/28 08:08:32;;;;;;;0.00;0.00;;;;;;;-139.19;100.00;56970.53;5047621;28;20457;-62
2024/03/28 08:10:58;;;;;;;0.03;0.03;;;;;;;-139.19;100.00;56970.53;5039838;28;20025;-62
2024/03/28 08:13:24;;;;;;;0.00;0.00;;;;;;;-139.19;100.00;56970.53;5035722;28;20080;-62
2024/03/28 08:15:49;;;;;;;0.00;0.00;;;;;;;-139.19;100.00;56970.53;5035595;28;20099;-62
2024/03/28 08:18:16;;;;;;;0.00;0.00;;;;;;;-139.19;100.00;56970.53;5044641;28;20025;-62
2024/03/28 08:20:42;;;;;;;0.10;0.10;;;;;;;-139.19;100.00;56970.53;5054758;28;20025;-62
2024/03/28 08:23:08;;;;;;;0.05;0.05;;;;;;;-139.19;100.00;56970.53;5048042;28;20426;-62
2024/03/28 08:25:33;;;;;;;0.00;0.00;;;;;;;-139.19;100.00;56970.53;5041397;28;20032;-63
2024/03/28 08:27:58;;;;;;;0.35;0.30;;;;;;;-139.19;100.00;56970.53;5042820;28;20037;-63
2024/03/28 08:30:24;;;;;;;0.10;0.10;;;;;;;-139.19;100.00;56970.53;5027202;28;20108;-63
2024/03/28 08:32:50;;;;;;;0.10;0.10;;;;;;;-139.19;100.00;56970.53;5035331;28;20038;-63
2024/03/28 08:35:16;;;;;;;0.05;0.05;;;;;;;-139.19;100.00;56970.53;5035621;28;20033;-63
2024/03/28 08:37:42;;;;;;;0.10;0.10;;;;;;;-139.19;100.00;56970.53;5039577;28;20024;-63
2024/03/28 08:40:09;;;;;;;0.10;0.10;;;;;;;-139.19;100.00;56970.53;5054589;28;20029;-63
2024/03/28 08:42:43;;;;;;;0.00;0.00;;;;;;;-139.19;100.00;56970.53;5053153;28;20076;-63
2024/03/28 08:45:11;;;;;;;0.00;0.00;;;;;;;-139.19;100.00;56970.53;5054430;28;20064;-63
2024/03/28 08:47:37;;;;;;;0.00;0.00;;;;;;;-139.19;100.00;56970.53;5053420;28;20031;-63
2024/03/28 08:50:03;;;;;;;0.00;0.00;;;;;;;-139.19;100.00;56970.53;5046190;28;20476;-63
2024/03/28 08:52:29;;;;;;;0.00;0.00;;;;;;;-139.19;100.00;56970.53;5049585;28;20108;-63
2024/03/28 08:54:56;;;;;;;0.00;0.00;;;;;;;-139.19;100.00;56970.53;5053153;28;20135;-63
2024/03/28 08:57:21;;;;;;;2.53;0.80;;;;;;;-139.19;100.00;56970.53;5034920;28;20032;-63
2024/03/28 08:59:47;;;;;;;0.05;0.05;;;;;;;-139.19;100.00;56970.53;5041199;28;20024;-63
2024/03/28 09:02:14;;;;;;;0.00;0.00;;;;;;;-139.19;100.00;56970.53;5051412;28;20052;-63
2024/03/28 09:04:40;;;;;;;0.00;0.00;;;;;;;-139.19;100.00;56970.53;5047889;28;20025;-63
2024/03/28 09:07:05;;;;;;;0.00;0.00;;;;;;;-139.19;100.00;56970.53;5035579;28;20363;-63
2024/03/28 09:09:31;;;;;;;0.00;0.00;;;;;;;-139.19;100.00;56970.53;5045968;28;20059;-63
2024/03/28 09:11:57;;;;;;;0.03;0.03;;;;;;;-139.19;100.00;56970.53;5053941;28;20071;-63
2024/03/28 09:14:23;;;;;;;0.10;0.10;;;;;;;-139.19;100.00;56970.53;5036225;28;20029;-63
2024/03/28 09:16:48;;;;;;;0.00;0.00;;;;;;;-139.19;100.00;56970.53;5034262;28;20049;-63
2024/03/28 09:19:14;;;;;;;0.00;0.00;;;;;;;-139.19;100.00;56970.53;5035612;28;20029;-63
2024/03/28 09:21:40;;;;;;;0.00;0.00;;;;;;;-139.19;100.00;56970.53;5023877;28;20029;-63
2024/03/28 09:24:09;;;;;;;0.05;0.05;;;;;;;-139.19;100.00;56970.53;5014584;28;20025;-63
2024/03/28 09:26:34;;;;;;;0.08;0.08;;;;;;;-139.19;100.00;56970.53;5032100;28;20491;-63
2024/03/28 09:29:00;;;;;;;0.10;0.10;;;;;;;-139.19;100.00;56970.53;5042119;28;20029;-63
2024/03/28 09:31:27;;;;;;;0.08;0.08;;;;;;;-139.19;100.00;56970.53;5034002;28;20079;-63
2024/03/28 09:33:53;;;;;;;0.00;0.00;;;;;;;-139.19;100.00;56970.53;5050208;28;20109;-62
2024/03/28 09:36:18;;;;;;;0.38;0.32;;;;;;;-139.19;100.00;56970.53;5025111;28;20029;-62
2024/03/28 09:38:53;;;;;;;0.00;0.00;;;;;;;-139.19;100.00;56970.53;5047411;28;20090;-62
2024/03/28 09:41:27;;;;;;;0.00;0.00;;;;;;;-139.19;100.00;56970.53;5051395;28;20481;-62
2024/03/28 09:44:02;;;;;;;0.00;0.00;;;;;;;-139.19;100.00;56970.53;5033860;28;20108;-62
2024/03/28 09:46:29;;;;;;;0.10;0.10;;;;;;;-139.19;100.00;56970.53;5033561;28;20478;-62
2024/03/28 09:48:58;;;;;;;0.20;0.20;;;;;;;-139.19;100.00;56970.53;5046108;28;20044;-62
2024/03/28 09:51:32;;;;;;;0.00;0.00;;;;;;;-139.19;100.00;56970.53;5026917;28;20065;-62
2024/03/28 09:54:08;;;;;;;0.03;0.03;;;;;;;-139.19;100.00;56970.53;5034230;28;20060;-62
2024/03/28 09:56:40;;;;;;;0.00;0.00;;;;;;;-139.19;100.00;56970.53;5033582;28;20108;-62
2024/03/28 09:59:06;;;;;;;0.05;0.05;;;;;;;-139.19;100.00;56970.53;5034693;28;20041;-61
2024/03/28 10:01:33;;;;;;;0.00;0.00;;;;;;;-139.19;100.00;56970.53;5034769;28;20449;-61
2024/03/28 10:04:09;;;;;;;0.20;0.20;;;;;;;-139.19;100.00;56970.53;5053091;28;20469;-62
2024/03/28 10:06:35;;;;;;;0.10;0.10;;;;;;;-139.19;100.00;56970.53;5051584;28;20043;-62
2024/03/28 10:09:02;;;;;;;0.17;0.17;;;;;;;-139.19;100.00;56970.53;5046070;28;20029;-62
2024/03/28 10:11:27;;;;;;;0.00;0.00;;;;;;;-139.19;100.00;56970.53;5037238;28;20033;-62
2024/03/28 10:13:53;;;;;;;0.00;0.00;;;;;;;-139.19;100.00;56970.53;5043165;28;20468;-62
2024/03/28 10:16:20;;;;;;;0.20;0.20;;;;;;;-139.19;100.00;56970.53;5039299;28;20018;-62
2024/03/28 10:18:45;;;;;;;0.10;0.10;;;;;;;-139.19;100.00;56970.53;5026503;28;20469;-62
2024/03/28 10:21:12;;;;;;;0.00;0.00;;;;;;;-139.19;100.00;56970.53;5031775;28;20096;-62
2024/03/28 10:23:40;;;;;;;0.00;0.00;;;;;;;-139.19;100.00;56970.53;5036946;28;20032;-62
2024/03/28 10:26:09;;;;;;;0.10;0.10;;;;;;;-139.19;100.00;56970.53;5035185;28;20025;-62
2024/03/28 10:28:36;;;;;;;0.05;0.05;;;;;;;-139.19;100.00;56970.53;5031319;28;20033;-62
2024/03/28 10:31:02;;;;;;;0.00;0.00;;;;;;;-139.19;100.00;56970.53;5032582;28;20474;-62
2024/03/28 10:33:29;;;;;;;0.00;0.00;;;;;;;-139.19;100.00;56970.53;5033257;28;20025;-62
2024/03/28 10:36:02;;;;;;;0.00;0.00;;;;;;;-139.19;100.00;56970.53;5033284;28;20508;-62
2024/03/28 10:38:28;;;;;;;0.08;0.08;;;;;;;-139.19;100.00;56970.53;5034421;28;20030;-62
2024/03/28 10:40:55;;;;;;;0.00;0.00;;;;;;;-139.19;100.00;56970.53;5028685;28;20474;-62
2024/03/28 10:43:25;;;;;;;0.10;0.10;;;;;;;-139.19;100.00;56970.53;5043630;28;20388;-62
2024/03/28 10:46:05;;;;;;;0.00;0.00;;;;;;;-139.19;100.00;56970.53;5033498;28;20025;-62
2024/03/28 10:48:33;;;;;;;0.00;0.00;;;;;;;-139.19;100.00;56970.53;5026263;28;20030;-62
2024/03/28 10:51:16;;;;;;;0.22;0.22;;;;;;;-139.19;100.00;56970.53;5028670;28;20493;-62
2024/03/28 10:54:03;;;;;;;0.00;0.00;;;;;;;-139.19;100.00;56970.53;5034591;28;20033;-62
2024/03/28 10:56:31;;;;;;;0.10;0.10;;;;;;;-139.19;100.00;56970.53;5046802;28;20046;-62
2024/03/28 10:59:01;;;;;;;0.10;0.10;;;;;;;-139.19;100.00;56970.53;5043668;28;20032;-62
2024/03/28 11:01:30;;;;;;;0.00;0.00;;;;;;;-139.19;100.00;56970.53;5045890;28;20021;-62
2024/03/28 11:03:56;;;;;;;0.10;0.10;;;;;;;-139.19;100.00;56970.53;5043532;28;20079;-62
2024/03/28 11:06:24;;;;;;;0.13;0.13;;;;;;;-139.19;100.00;56970.53;5050240;28;20376;-62
2024/03/28 11:08:49;;;;;;;0.15;0.15;;;;;;;-139.19;100.00;56970.53;5049932;28;20029;-62
2024/03/28 11:11:14;;;;;;;0.10;0.10;;;;;;;-139.19;100.00;56970.53;5038444;28;20048;-62
2024/03/28 11:13:41;;;;;;;0.00;0.00;;;;;;;-139.19;100.00;56970.53;5046581;28;20025;-62